createdAt,value
2022-10-16T00:01:36.342Z,16.72
2022-10-16T00:04:09.448Z,16.73
2022-10-16T00:06:41.430Z,16.75
2022-10-16T00:09:13.356Z,16.70
2022-10-16T00:11:45.323Z,16.67
2022-10-16T00:14:17.494Z,16.62
2022-10-16T00:16:49.411Z,16.63
2022-10-16T00:19:21.440Z,16.64
2022-10-16T00:21:53.407Z,16.65
2022-10-16T00:24:25.329Z,16.67
2022-10-16T00:26:57.245Z,16.68
2022-10-16T00:29:29.131Z,16.69
2022-10-16T00:32:01.027Z,16.67
2022-10-16T00:34:32.962Z,16.66
2022-10-16T00:37:05.218Z,16.65
2022-10-16T00:39:37.183Z,16.62
2022-10-16T00:42:17.281Z,16.59
2022-10-16T00:45:00.314Z,16.56
2022-10-16T00:47:56.638Z,16.56
2022-10-16T00:50:35.398Z,16.57
2022-10-16T00:53:07.413Z,16.54
2022-10-16T00:55:42.408Z,16.50
2022-10-16T00:58:14.693Z,16.47
2022-10-16T01:00:46.741Z,16.46
2022-10-16T01:03:33.123Z,16.45
2022-10-16T01:06:32.204Z,16.43
2022-10-16T01:09:44.352Z,16.43
2022-10-16T01:12:41.201Z,16.44
2022-10-16T01:16:09.255Z,16.42
2022-10-16T01:19:30.656Z,16.35
2022-10-16T01:22:04.453Z,16.37
2022-10-16T01:24:44.956Z,16.37
2022-10-16T01:27:28.255Z,16.33
2022-10-16T01:30:11.730Z,16.33
2022-10-16T01:33:03.630Z,16.32
2022-10-16T01:35:46.465Z,16.28
2022-10-16T01:38:35.438Z,16.33
2022-10-16T01:41:25.957Z,16.30
2022-10-16T01:44:17.887Z,16.34
2022-10-16T01:46:53.744Z,16.35
2022-10-16T01:49:32.417Z,16.35
2022-10-16T01:52:11.917Z,16.34
2022-10-16T01:54:48.582Z,16.36
2022-10-16T01:57:22.545Z,16.37
2022-10-16T01:59:59.659Z,16.34
2022-10-16T02:02:32.421Z,16.34
2022-10-16T02:05:33.556Z,16.28
2022-10-16T02:08:05.962Z,16.34
2022-10-16T02:10:39.316Z,16.34
2022-10-16T02:13:20.762Z,16.34
2022-10-16T02:15:52.807Z,16.31
2022-10-16T02:18:30.064Z,16.30
2022-10-16T02:21:29.720Z,16.07
2022-10-16T02:24:28.531Z,16.23
2022-10-16T02:27:19.341Z,16.15
2022-10-16T02:30:16.896Z,16.19
2022-10-16T02:32:51.208Z,16.21
2022-10-16T02:35:25.961Z,16.21
2022-10-16T02:37:59.162Z,16.20
2022-10-16T02:40:31.740Z,16.20
2022-10-16T02:43:06.481Z,16.18
2022-10-16T02:45:38.703Z,16.12
2022-10-16T02:48:10.649Z,16.12
2022-10-16T02:50:42.540Z,16.12
2022-10-16T02:53:14.462Z,16.09
2022-10-16T02:55:46.404Z,15.96
2022-10-16T02:58:18.338Z,16.07
2022-10-16T03:00:50.282Z,16.06
2022-10-16T03:03:22.550Z,16.03
2022-10-16T03:05:54.478Z,16.04
2022-10-16T03:08:26.360Z,15.99
2022-10-16T03:10:58.302Z,15.99
2022-10-16T03:13:30.324Z,15.98
2022-10-16T03:16:02.280Z,16.01
2022-10-16T03:18:34.231Z,16.00
2022-10-16T03:21:06.168Z,16.00
2022-10-16T03:23:38.199Z,16.01
2022-10-16T03:26:10.094Z,15.98
2022-10-16T03:28:42.069Z,16.00
2022-10-16T03:31:14.073Z,15.98
2022-10-16T03:33:45.972Z,15.95
2022-10-16T03:36:17.831Z,15.92
2022-10-16T03:38:49.810Z,15.88
2022-10-16T03:41:21.743Z,15.89
2022-10-16T03:43:53.648Z,15.85
2022-10-16T03:46:25.658Z,15.85
2022-10-16T03:48:57.564Z,15.84
2022-10-16T03:51:29.473Z,15.83
2022-10-16T03:54:01.407Z,15.83
2022-10-16T03:56:33.400Z,15.83
2022-10-16T03:59:05.476Z,15.79
2022-10-16T04:01:37.347Z,15.83
2022-10-16T04:04:09.603Z,15.79
2022-10-16T04:06:41.492Z,15.79
2022-10-16T04:09:13.572Z,15.79
2022-10-16T04:11:45.527Z,15.74
2022-10-16T04:14:17.445Z,15.75
2022-10-16T04:16:49.339Z,15.75
2022-10-16T04:19:21.212Z,15.73
2022-10-16T04:21:53.257Z,15.69
2022-10-16T04:24:25.144Z,15.70
2022-10-16T04:26:57.123Z,15.71
2022-10-16T04:29:29.173Z,15.70
2022-10-16T04:32:01.047Z,15.70
2022-10-16T04:34:33.176Z,15.73
2022-10-16T04:37:05.115Z,15.75
2022-10-16T04:39:37.026Z,15.75
2022-10-16T04:42:09.013Z,15.73
2022-10-16T04:44:40.925Z,15.75
2022-10-16T04:47:14.349Z,15.78
2022-10-16T04:49:46.303Z,15.77
2022-10-16T04:52:19.922Z,15.75
2022-10-16T04:54:52.079Z,15.75
2022-10-16T04:57:24.331Z,15.72
2022-10-16T04:59:56.608Z,15.73
2022-10-16T05:02:28.902Z,15.73
2022-10-16T05:05:00.895Z,15.77
2022-10-16T05:07:32.856Z,15.76
2022-10-16T05:10:05.443Z,15.80
2022-10-16T05:12:37.352Z,15.78
2022-10-16T05:15:10.287Z,15.79
2022-10-16T05:17:44.597Z,15.79
2022-10-16T05:20:16.872Z,15.79
2022-10-16T05:22:49.213Z,15.77
2022-10-16T05:25:21.337Z,15.73
2022-10-16T05:27:53.315Z,15.76
2022-10-16T05:30:25.287Z,15.73
2022-10-16T05:32:57.231Z,15.75
2022-10-16T05:35:29.088Z,15.75
2022-10-16T05:38:01.025Z,15.74
2022-10-16T05:40:32.911Z,15.76
2022-10-16T05:43:04.854Z,15.71
2022-10-16T05:45:36.715Z,15.69
2022-10-16T05:48:08.660Z,15.70
2022-10-16T05:50:40.584Z,15.68
2022-10-16T05:53:12.502Z,15.65
2022-10-16T05:55:44.396Z,15.67
2022-10-16T05:58:16.279Z,15.69
2022-10-16T06:01:02.858Z,15.72
2022-10-16T06:03:35.409Z,15.61
2022-10-16T06:06:23.819Z,15.61
2022-10-16T06:08:57.346Z,15.62
2022-10-16T06:11:33.252Z,15.63
2022-10-16T06:14:07.970Z,15.58
2022-10-16T06:16:40.009Z,15.60
2022-10-16T06:19:11.966Z,15.61
2022-10-16T06:21:44.318Z,15.62
2022-10-16T06:24:16.241Z,15.61
2022-10-16T06:26:48.183Z,15.64
2022-10-16T06:29:20.183Z,15.65
2022-10-16T06:31:52.213Z,15.66
2022-10-16T06:34:24.194Z,15.64
2022-10-16T06:36:56.380Z,15.64
2022-10-16T06:39:28.291Z,15.65
2022-10-16T06:44:36.969Z,15.67
2022-10-16T06:47:08.839Z,15.67
2022-10-16T06:49:40.752Z,15.67
2022-10-16T06:52:12.823Z,15.70
2022-10-16T06:54:44.736Z,15.71
2022-10-16T06:57:17.098Z,15.72
2022-10-16T06:59:52.111Z,15.74
2022-10-16T07:02:26.645Z,15.79
2022-10-16T07:04:59.231Z,15.79
2022-10-16T07:07:31.088Z,15.80
2022-10-16T07:10:03.275Z,15.83
2022-10-16T07:12:35.204Z,15.84
2022-10-16T07:15:07.784Z,15.84
2022-10-16T07:17:39.717Z,15.85
2022-10-16T07:20:11.679Z,15.90
2022-10-16T07:22:43.595Z,15.98
2022-10-16T07:25:15.660Z,16.06
2022-10-16T07:27:47.794Z,16.12
2022-10-16T07:30:20.103Z,16.21
2022-10-16T07:32:52.022Z,16.34
2022-10-16T07:35:23.982Z,16.46
2022-10-16T07:37:55.925Z,16.60
2022-10-16T07:40:28.196Z,16.77
2022-10-16T07:43:00.114Z,16.91
2022-10-16T07:45:32.017Z,17.06
2022-10-16T07:48:04.169Z,17.13
2022-10-16T07:50:36.112Z,17.20
2022-10-16T07:53:08.432Z,17.31
2022-10-16T07:55:40.653Z,17.40
2022-10-16T07:58:12.604Z,17.49
2022-10-16T08:00:44.529Z,17.57
2022-10-16T08:03:16.440Z,17.62
2022-10-16T08:05:48.772Z,17.73
2022-10-16T08:08:21.196Z,17.74
2022-10-16T08:10:53.338Z,17.80
2022-10-16T08:13:25.452Z,17.80
2022-10-16T08:15:57.444Z,17.84
2022-10-16T08:18:29.393Z,17.94
2022-10-16T08:21:01.428Z,18.03
2022-10-16T08:23:35.077Z,18.09
2022-10-16T08:26:09.193Z,18.04
2022-10-16T08:28:41.368Z,18.17
2022-10-16T08:33:49.283Z,18.21
2022-10-16T08:36:21.506Z,18.32
2022-10-16T08:38:55.333Z,18.45
2022-10-16T08:42:25.316Z,18.49
2022-10-16T08:45:34.257Z,18.52
2022-10-16T08:48:30.609Z,18.62
2022-10-16T08:51:05.225Z,18.69
2022-10-16T08:53:55.501Z,18.76
2022-10-16T08:56:27.585Z,18.83
2022-10-16T08:59:02.386Z,18.88
2022-10-16T09:01:50.587Z,18.94
2022-10-16T09:04:57.034Z,18.97
2022-10-16T09:07:55.793Z,18.98
2022-10-16T09:11:19.123Z,19.10
2022-10-16T09:14:18.475Z,19.18
2022-10-16T09:17:27.020Z,19.28
2022-10-16T09:20:27.454Z,19.41
2022-10-16T09:23:05.237Z,19.57
2022-10-16T09:25:40.681Z,19.56
2022-10-16T09:28:12.820Z,19.53
2022-10-16T09:30:46.242Z,19.57
2022-10-16T09:33:23.344Z,19.63
2022-10-16T09:35:59.786Z,19.73
2022-10-16T09:38:37.989Z,19.75
2022-10-16T09:41:22.072Z,19.69
2022-10-16T09:44:01.140Z,19.67
2022-10-16T09:46:36.952Z,19.60
2022-10-16T09:49:27.938Z,19.69
2022-10-16T09:52:16.563Z,19.73
2022-10-16T09:54:53.434Z,19.83
2022-10-16T09:57:26.700Z,19.83
2022-10-16T09:59:59.922Z,19.83
2022-10-16T10:02:39.067Z,19.94
2022-10-16T10:05:30.858Z,19.94
2022-10-16T10:08:07.139Z,19.94
2022-10-16T10:10:44.349Z,19.97
2022-10-16T10:13:25.227Z,20.00
2022-10-16T10:15:57.192Z,20.08
2022-10-16T10:18:29.101Z,20.09
2022-10-16T10:23:40.201Z,20.02
2022-10-16T10:26:29.033Z,20.05
2022-10-16T10:29:26.237Z,20.16
2022-10-16T10:32:10.677Z,20.33
2022-10-16T10:35:26.021Z,20.44
2022-10-16T10:38:24.618Z,20.40
2022-10-16T10:41:27.909Z,20.50
2022-10-16T10:44:24.953Z,20.69
2022-10-16T10:47:35.704Z,20.89
2022-10-16T10:50:17.202Z,20.87
2022-10-16T10:53:07.155Z,20.84
2022-10-16T10:56:01.357Z,20.85
2022-10-16T10:59:17.319Z,20.83
2022-10-16T11:02:25.644Z,20.77
2022-10-16T11:05:33.963Z,20.81
2022-10-16T11:08:14.743Z,20.85
2022-10-16T11:11:01.185Z,20.70
2022-10-16T11:13:55.631Z,20.64
2022-10-16T11:16:37.898Z,20.68
2022-10-16T11:19:38.270Z,20.65
2022-10-16T11:22:40.611Z,20.62
2022-10-16T11:25:32.921Z,20.67
2022-10-16T11:28:31.787Z,20.62
2022-10-16T11:31:18.592Z,20.53
2022-10-16T11:34:12.980Z,20.41
2022-10-16T11:37:15.399Z,20.25
2022-10-16T11:39:48.441Z,20.24
2022-10-16T11:42:40.907Z,20.30
2022-10-16T11:45:43.723Z,20.37
2022-10-16T11:48:57.198Z,20.63
2022-10-16T11:51:41.950Z,20.81
2022-10-16T11:54:35.372Z,20.78
2022-10-16T11:57:39.971Z,20.79
2022-10-16T12:00:28.405Z,20.74
2022-10-16T12:04:00.320Z,20.69
2022-10-16T12:07:08.249Z,20.73
2022-10-16T12:09:42.477Z,20.85
2022-10-16T12:12:37.869Z,20.80
2022-10-16T12:15:57.706Z,20.78
2022-10-16T12:18:26.554Z,20.79
2022-10-16T12:21:05.381Z,20.87
2022-10-16T12:23:57.036Z,21.08
2022-10-16T12:26:40.495Z,21.37
2022-10-16T12:29:24.261Z,21.68
2022-10-16T12:31:58.289Z,21.91
2022-10-16T12:34:44.440Z,22.16
2022-10-16T12:37:32.074Z,22.34
2022-10-16T12:40:37.373Z,22.39
2022-10-16T12:43:28.982Z,22.58
2022-10-16T12:46:40.646Z,22.54
2022-10-16T12:49:16.597Z,22.67
2022-10-16T12:51:48.851Z,22.76
2022-10-16T12:54:31.658Z,23.07
2022-10-16T12:57:59.472Z,23.12
2022-10-16T13:00:48.638Z,23.44
2022-10-16T13:03:51.258Z,23.57
2022-10-16T13:07:09.673Z,23.71
2022-10-16T13:09:54.965Z,23.78
2022-10-16T13:13:01.188Z,23.58
2022-10-16T13:15:55.001Z,23.28
2022-10-16T13:18:48.747Z,23.13
2022-10-16T13:21:39.832Z,23.01
2022-10-16T13:24:35.153Z,22.83
2022-10-16T13:27:29.505Z,22.72
2022-10-16T13:30:28.257Z,22.69
2022-10-16T13:33:08.746Z,22.68
2022-10-16T13:35:58.098Z,22.67
2022-10-16T13:38:37.042Z,22.64
2022-10-16T13:41:18.870Z,22.48
2022-10-16T13:43:57.087Z,22.30
2022-10-16T13:46:30.710Z,22.25
2022-10-16T13:49:14.304Z,22.14
2022-10-16T13:52:01.059Z,22.07
2022-10-16T13:54:33.020Z,22.03
2022-10-16T13:57:26.347Z,21.97
2022-10-16T13:59:59.368Z,21.81
2022-10-16T14:02:41.419Z,21.75
2022-10-16T14:05:15.902Z,21.67
2022-10-16T14:07:52.625Z,21.60
2022-10-16T14:10:34.549Z,21.56
2022-10-16T14:13:09.292Z,21.53
2022-10-16T14:15:41.295Z,21.46
2022-10-16T14:18:22.892Z,21.43
2022-10-16T14:20:57.407Z,21.42
2022-10-16T14:23:40.214Z,21.43
2022-10-16T14:26:14.253Z,21.45
2022-10-16T14:28:48.355Z,21.46
2022-10-16T14:31:34.956Z,21.45
2022-10-16T14:34:37.918Z,21.41
2022-10-16T14:37:29.669Z,21.42
2022-10-16T14:40:04.618Z,21.45
2022-10-16T14:42:36.581Z,21.53
2022-10-16T14:45:12.755Z,21.65
2022-10-16T14:47:54.563Z,21.87
2022-10-16T14:50:26.580Z,21.96
2022-10-16T14:53:00.161Z,22.04
2022-10-16T14:55:32.053Z,22.06
2022-10-16T14:58:04.088Z,22.17
2022-10-16T15:00:36.226Z,22.40
2022-10-16T15:03:08.205Z,22.81
2022-10-16T15:05:40.122Z,22.93
2022-10-16T15:08:13.337Z,22.93
2022-10-16T15:10:45.609Z,22.87
2022-10-16T15:13:17.471Z,22.72
2022-10-16T15:15:50.313Z,22.59
2022-10-16T15:18:23.137Z,22.49
2022-10-16T15:20:55.225Z,22.37
2022-10-16T15:26:03.993Z,22.20
2022-10-16T15:28:36.790Z,22.13
2022-10-16T15:31:08.846Z,22.06
2022-10-16T15:33:40.773Z,21.99
2022-10-16T15:36:12.835Z,21.91
2022-10-16T15:38:45.084Z,21.84
2022-10-16T15:41:16.986Z,21.78
2022-10-16T15:43:52.652Z,21.75
2022-10-16T15:46:25.624Z,21.68
2022-10-16T15:48:59.592Z,21.64
2022-10-16T15:51:33.996Z,21.59
2022-10-16T15:54:06.661Z,21.55
2022-10-16T15:56:38.760Z,21.54
2022-10-16T15:59:10.663Z,21.53
2022-10-16T16:01:42.733Z,21.50
2022-10-16T16:04:31.806Z,21.45
2022-10-16T16:07:08.339Z,21.39
2022-10-16T16:09:40.332Z,21.36
2022-10-16T16:12:12.262Z,21.32
2022-10-16T16:14:47.047Z,21.30
2022-10-16T16:17:19.223Z,21.27
2022-10-16T16:19:52.034Z,21.24
2022-10-16T16:22:23.972Z,21.22
2022-10-16T16:24:55.891Z,21.21
2022-10-16T16:27:30.021Z,21.16
2022-10-16T16:30:04.632Z,21.14
2022-10-16T16:32:36.582Z,21.09
2022-10-16T16:35:08.666Z,21.07
2022-10-16T16:37:40.540Z,21.04
2022-10-16T16:40:12.629Z,21.02
2022-10-16T16:42:44.773Z,20.97
2022-10-16T16:45:16.883Z,21.08
2022-10-16T16:47:48.800Z,20.92
2022-10-16T16:50:20.694Z,20.87
2022-10-16T16:52:52.632Z,20.85
2022-10-16T16:55:24.614Z,20.83
2022-10-16T16:57:57.719Z,20.80
2022-10-16T17:00:29.858Z,20.78
2022-10-16T17:03:01.848Z,20.93
2022-10-16T17:05:33.758Z,20.71
2022-10-16T17:08:09.373Z,20.69
2022-10-16T17:10:45.207Z,20.68
2022-10-16T17:13:17.387Z,20.69
2022-10-16T17:15:51.279Z,20.70
2022-10-16T17:18:24.908Z,20.70
2022-10-16T17:21:00.827Z,20.68
2022-10-16T17:23:34.631Z,20.67
2022-10-16T17:26:13.603Z,20.63
2022-10-16T17:28:46.033Z,20.61
2022-10-16T17:31:26.269Z,20.60
2022-10-16T17:34:05.692Z,20.55
2022-10-16T17:36:43.869Z,20.55
2022-10-16T17:39:18.118Z,20.54
2022-10-16T17:41:50.121Z,20.49
2022-10-16T17:44:22.490Z,20.47
2022-10-16T17:46:54.685Z,20.42
2022-10-16T17:49:26.594Z,20.58
2022-10-16T17:52:01.804Z,20.57
2022-10-16T17:54:33.760Z,20.38
2022-10-16T17:57:05.680Z,20.36
2022-10-16T17:59:37.795Z,20.39
2022-10-16T18:02:12.544Z,20.37
2022-10-16T18:04:44.675Z,20.37
2022-10-16T18:07:17.014Z,20.35
2022-10-16T18:10:10.612Z,20.35
2022-10-16T18:12:41.086Z,20.27
2022-10-16T18:15:13.102Z,20.32
2022-10-16T18:17:45.102Z,20.25
2022-10-16T18:20:16.994Z,20.19
2022-10-16T18:22:48.941Z,20.20
2022-10-16T18:25:21.012Z,20.21
2022-10-16T18:27:52.918Z,20.15
2022-10-16T18:30:24.964Z,20.21
2022-10-16T18:32:56.873Z,20.19
2022-10-16T18:35:28.723Z,20.16
2022-10-16T18:38:00.771Z,20.11
2022-10-16T18:40:32.693Z,20.09
2022-10-16T18:43:04.698Z,20.09
2022-10-16T18:45:36.602Z,20.06
2022-10-16T18:48:08.979Z,20.06
2022-10-16T18:50:40.908Z,20.05
2022-10-16T18:53:12.834Z,19.98
2022-10-16T18:55:51.595Z,19.97
2022-10-16T18:58:23.511Z,19.95
2022-10-16T19:00:55.446Z,19.89
2022-10-16T19:03:27.600Z,19.87
2022-10-16T19:06:05.661Z,19.85
2022-10-16T19:08:39.019Z,19.84
2022-10-16T19:11:21.733Z,19.78
2022-10-16T19:13:57.421Z,19.80
2022-10-16T19:16:33.034Z,19.79
2022-10-16T19:19:08.405Z,19.78
2022-10-16T19:21:43.660Z,19.74
2022-10-16T19:24:16.744Z,19.70
2022-10-16T19:26:48.691Z,19.69
2022-10-16T19:29:20.610Z,19.68
2022-10-16T19:31:52.525Z,19.68
2022-10-16T19:34:24.749Z,19.67
2022-10-16T19:36:56.965Z,19.65
2022-10-16T19:39:29.025Z,19.62
2022-10-16T19:42:00.978Z,19.62
2022-10-16T19:44:32.991Z,19.62
2022-10-16T19:47:05.097Z,19.64
2022-10-16T19:49:37.106Z,19.61
2022-10-16T19:52:09.072Z,19.59
2022-10-16T19:54:41.074Z,19.58
2022-10-16T19:57:13.174Z,19.59
2022-10-16T19:59:45.857Z,19.49
2022-10-16T20:02:17.839Z,19.56
2022-10-16T20:04:49.748Z,19.55
2022-10-16T20:07:22.993Z,19.56
2022-10-16T20:09:54.841Z,19.55
2022-10-16T20:12:26.762Z,19.56
2022-10-16T20:14:58.673Z,19.56
2022-10-16T20:17:30.791Z,19.53
2022-10-16T20:20:02.849Z,19.50
2022-10-16T20:22:34.803Z,19.48
2022-10-16T20:25:10.011Z,19.46
2022-10-16T20:27:42.205Z,19.44
2022-10-16T20:30:14.192Z,19.43
2022-10-16T20:32:46.197Z,19.40
2022-10-16T20:35:18.336Z,19.41
2022-10-16T20:37:50.621Z,19.39
2022-10-16T20:40:22.549Z,19.33
2022-10-16T20:42:54.463Z,19.36
2022-10-16T20:45:26.358Z,19.35
2022-10-16T20:47:59.286Z,19.34
2022-10-16T20:50:32.361Z,19.33
2022-10-16T20:53:04.457Z,19.30
2022-10-16T20:55:38.217Z,19.27
2022-10-16T20:58:10.188Z,19.23
2022-10-16T21:00:42.148Z,19.20
2022-10-16T21:03:14.066Z,19.19
2022-10-16T21:05:45.964Z,19.05
2022-10-16T21:08:17.855Z,19.12
2022-10-16T21:10:49.716Z,19.08
2022-10-16T21:13:21.708Z,19.05
2022-10-16T21:15:53.669Z,19.02
2022-10-16T21:18:27.277Z,19.01
2022-10-16T21:20:59.239Z,19.00
2022-10-16T21:23:32.645Z,18.98
2022-10-16T21:26:04.902Z,18.86
2022-10-16T21:28:36.818Z,18.93
2022-10-16T21:31:15.919Z,18.87
2022-10-16T21:33:48.706Z,18.88
2022-10-16T21:36:27.343Z,18.89
2022-10-16T21:39:20.609Z,18.82
2022-10-16T21:41:52.783Z,18.85
2022-10-16T21:44:24.850Z,18.81
2022-10-16T21:46:56.763Z,18.81
2022-10-16T21:49:28.780Z,18.74
2022-10-16T21:52:00.718Z,18.75
2022-10-16T21:54:32.655Z,18.74
2022-10-16T21:59:41.470Z,18.72
2022-10-16T22:02:13.345Z,18.65
2022-10-16T22:04:45.245Z,18.68
2022-10-16T22:07:17.204Z,18.68
2022-10-16T22:09:49.086Z,18.66
2022-10-16T22:12:21.000Z,18.62
2022-10-16T22:14:52.926Z,18.64
2022-10-16T22:17:25.135Z,18.64
2022-10-16T22:19:57.205Z,18.62
2022-10-16T22:22:29.076Z,18.59
2022-10-16T22:25:01.044Z,18.55
2022-10-16T22:27:32.933Z,18.62
2022-10-16T22:30:05.510Z,18.63
2022-10-16T22:32:37.567Z,18.63
2022-10-16T22:35:11.593Z,18.61
2022-10-16T22:37:43.587Z,18.63
2022-10-16T22:40:15.566Z,18.58
2022-10-16T22:45:20.274Z,18.55
2022-10-16T22:47:52.154Z,18.56
2022-10-16T22:50:24.595Z,18.55
2022-10-16T22:52:57.256Z,18.58
2022-10-16T22:55:29.178Z,18.56
2022-10-16T22:58:01.022Z,18.55
2022-10-16T23:00:32.980Z,18.52
2022-10-16T23:03:04.994Z,18.55
2022-10-16T23:05:42.207Z,18.52
2022-10-16T23:08:14.370Z,18.50
2022-10-16T23:10:49.820Z,18.50
2022-10-16T23:13:21.673Z,18.45
2022-10-16T23:15:53.648Z,18.45
2022-10-16T23:18:25.617Z,18.42
2022-10-16T23:20:57.503Z,18.42
2022-10-16T23:23:29.412Z,18.42
2022-10-16T23:26:01.421Z,18.42
2022-10-16T23:28:33.423Z,18.42
2022-10-16T23:31:07.201Z,18.41
2022-10-16T23:33:39.783Z,18.42
2022-10-16T23:36:15.947Z,18.42
2022-10-16T23:38:49.662Z,18.40
2022-10-16T23:41:22.155Z,18.41
2022-10-16T23:43:54.237Z,18.40
2022-10-16T23:46:26.228Z,18.41
2022-10-16T23:48:58.562Z,18.41
2022-10-16T23:51:30.458Z,18.41
2022-10-16T23:54:02.347Z,18.43
2022-10-16T23:56:34.226Z,18.43
2022-10-16T23:59:06.081Z,18.40
